Swatara, Pennsylvania
Current Conditions -  °F | °C
As of 11:56 PM on Friday 24 Oct 2014 (Local Time) from KMDT Reporting Station
Scattered Clouds Scattered Clouds  
Wind Chill: 53°   Ceiling: Unl
Heat Index: 53°   Visibility: 10mi
Dew Point: 39°   Wind: 9mph
Humidity: 59%   Direction: 320°NW
Pressure: 29.93"   Gusts: NA
Location:  40.2634°N, 76.626°W
Report Text: KMDT 250356Z 32008KT 10SM SCT220 12/04 A2993 RMK AO2 SLP136 T01170039
Loading
Personal Weather Stations






























Interactive Weather Map
Tropical Storm Tracking
New forecast layout! Learn more

10-Day Weather Forecast

Advertisements
Track Severe Weather on mobile